createdAt,value
2023-03-19T00:00:47.542Z,11.90
2023-03-19T00:03:14.884Z,6.63
2023-03-19T00:05:42.166Z,7.25
2023-03-19T00:08:09.509Z,11.35
2023-03-19T00:10:40.050Z,7.20
2023-03-19T00:13:07.525Z,9.93
2023-03-19T00:15:35.084Z,10.68
2023-03-19T00:18:02.625Z,9.40
2023-03-19T00:20:29.926Z,8.07
2023-03-19T00:22:57.253Z,11.10
2023-03-19T00:25:26.016Z,9.35
2023-03-19T00:27:55.170Z,9.68
2023-03-19T00:30:24.242Z,8.40
2023-03-19T00:32:51.708Z,9.85
2023-03-19T00:35:22.118Z,10.55
2023-03-19T00:37:49.572Z,8.30
2023-03-19T00:40:17.044Z,10.05
2023-03-19T00:42:44.952Z,7.93
2023-03-19T00:45:13.254Z,9.23
2023-03-19T00:47:40.635Z,10.05
2023-03-19T00:50:08.603Z,8.38
2023-03-19T00:52:36.042Z,8.63
2023-03-19T00:55:03.376Z,9.15
2023-03-19T00:57:31.039Z,10.85
2023-03-19T00:59:58.367Z,9.10
2023-03-19T01:02:26.028Z,12.88
2023-03-19T01:04:53.515Z,12.50
2023-03-19T01:07:21.314Z,11.45
2023-03-19T01:09:48.772Z,7.82
2023-03-19T01:12:16.568Z,10.45
2023-03-19T01:14:43.879Z,10.82
2023-03-19T01:17:11.300Z,11.63
2023-03-19T01:19:38.629Z,13.13
2023-03-19T01:22:06.068Z,10.55
2023-03-19T01:24:33.606Z,9.68
2023-03-19T01:27:01.145Z,8.90
2023-03-19T01:29:28.536Z,8.63
2023-03-19T01:31:56.356Z,10.13
2023-03-19T01:34:24.274Z,10.38
2023-03-19T01:36:52.334Z,8.30
2023-03-19T01:39:19.819Z,9.88
2023-03-19T01:41:47.517Z,10.05
2023-03-19T01:44:34.669Z,12.70
2023-03-19T01:47:07.379Z,9.98
2023-03-19T01:49:35.394Z,10.50
2023-03-19T01:52:04.687Z,10.95
2023-03-19T01:54:32.867Z,11.07
2023-03-19T01:57:06.725Z,11.23
2023-03-19T01:59:43.149Z,10.32
2023-03-19T02:02:21.929Z,12.30
2023-03-19T02:04:53.884Z,12.68
2023-03-19T02:07:22.231Z,12.97
2023-03-19T02:09:49.638Z,13.32
2023-03-19T02:12:17.460Z,15.02
2023-03-19T02:14:44.902Z,14.75
2023-03-19T02:17:12.354Z,13.55
2023-03-19T02:20:05.241Z,16.10
2023-03-19T02:22:32.867Z,14.68
2023-03-19T02:25:12.002Z,17.77
2023-03-19T02:27:39.400Z,16.85
2023-03-19T02:30:29.473Z,18.70
2023-03-19T02:32:56.857Z,18.35
2023-03-19T02:35:24.260Z,19.73
2023-03-19T02:37:51.660Z,17.40
2023-03-19T02:40:33.330Z,17.17
2023-03-19T02:43:01.128Z,17.00
2023-03-19T02:45:32.248Z,17.50
2023-03-19T02:48:00.488Z,17.80
2023-03-19T02:50:28.046Z,17.05
2023-03-19T02:52:55.642Z,19.88
2023-03-19T02:55:23.172Z,18.58
2023-03-19T02:57:50.884Z,19.23
2023-03-19T03:00:18.853Z,19.52
2023-03-19T03:02:46.307Z,20.33
2023-03-19T03:05:14.380Z,18.83
2023-03-19T03:07:43.983Z,21.40
2023-03-19T03:10:11.998Z,19.95
2023-03-19T03:12:39.602Z,22.00
2023-03-19T03:15:08.661Z,16.23
2023-03-19T03:17:39.619Z,19.77
2023-03-19T03:20:08.236Z,17.40
2023-03-19T03:22:35.856Z,21.13
2023-03-19T03:25:03.325Z,20.73
2023-03-19T03:27:31.429Z,19.38
2023-03-19T03:29:58.932Z,19.30
2023-03-19T03:32:26.547Z,18.67
2023-03-19T03:34:53.854Z,19.08
2023-03-19T03:37:21.441Z,16.92
2023-03-19T03:39:48.873Z,19.73
2023-03-19T03:42:16.349Z,20.77
2023-03-19T03:44:43.650Z,21.60
2023-03-19T03:47:11.438Z,21.15
2023-03-19T03:49:38.785Z,20.85
2023-03-19T03:52:06.426Z,22.83
2023-03-19T03:54:33.925Z,28.90
2023-03-19T03:57:03.532Z,28.67
2023-03-19T03:59:31.175Z,31.30
2023-03-19T04:01:58.635Z,39.50
2023-03-19T04:04:26.665Z,41.60
2023-03-19T04:06:54.035Z,42.03
2023-03-19T04:09:21.880Z,39.00
2023-03-19T04:11:51.350Z,34.55
2023-03-19T04:14:19.057Z,38.72
2023-03-19T04:16:46.749Z,38.30
2023-03-19T04:19:14.463Z,40.25
2023-03-19T04:21:41.975Z,38.30
2023-03-19T04:24:12.653Z,38.15
2023-03-19T04:26:40.114Z,38.30
2023-03-19T04:29:08.792Z,42.83
2023-03-19T04:31:39.432Z,40.13
2023-03-19T04:34:07.213Z,41.85
2023-03-19T04:36:34.663Z,41.65
2023-03-19T04:39:02.083Z,41.03
2023-03-19T04:41:29.843Z,51.50
2023-03-19T04:43:57.413Z,50.92
2023-03-19T04:46:24.977Z,46.05
2023-03-19T04:48:52.332Z,48.08
2023-03-19T04:51:21.540Z,49.85
2023-03-19T04:53:49.244Z,48.45
2023-03-19T04:56:18.059Z,57.97
2023-03-19T04:58:46.158Z,47.80
2023-03-19T05:01:13.907Z,50.45
2023-03-19T05:03:41.470Z,56.28
2023-03-19T05:06:08.784Z,54.15
2023-03-19T05:08:36.153Z,58.53
2023-03-19T05:11:03.680Z,58.55
2023-03-19T05:13:31.413Z,47.40
2023-03-19T05:15:59.529Z,54.83
2023-03-19T05:18:27.436Z,56.47
2023-03-19T05:20:55.432Z,55.80
2023-03-19T05:23:23.212Z,49.92
2023-03-19T05:25:50.804Z,58.50
2023-03-19T05:28:18.256Z,56.20
2023-03-19T05:30:45.607Z,54.88
2023-03-19T05:33:13.033Z,53.33
2023-03-19T05:35:41.124Z,59.10
2023-03-19T05:38:08.531Z,59.63
2023-03-19T05:40:36.288Z,65.32
2023-03-19T05:43:03.731Z,59.20
2023-03-19T05:45:31.097Z,59.25
2023-03-19T05:47:58.392Z,58.85
2023-03-19T05:50:25.867Z,58.20
2023-03-19T05:52:53.227Z,63.65
2023-03-19T05:55:20.783Z,60.10
2023-03-19T05:57:48.127Z,61.75
2023-03-19T06:00:16.162Z,64.57
2023-03-19T06:02:43.705Z,61.60
2023-03-19T06:05:12.179Z,66.65
2023-03-19T06:07:39.673Z,64.65
2023-03-19T06:10:07.741Z,73.05
2023-03-19T06:12:35.156Z,73.80
2023-03-19T06:15:02.753Z,71.78
2023-03-19T06:17:30.158Z,69.22
2023-03-19T06:19:57.464Z,73.50
2023-03-19T06:22:27.652Z,74.63
2023-03-19T06:24:56.544Z,91.32
2023-03-19T06:27:23.836Z,91.10
2023-03-19T06:29:51.642Z,80.97
2023-03-19T06:32:18.978Z,100.18
2023-03-19T06:34:46.689Z,107.13
2023-03-19T06:37:14.020Z,107.85
2023-03-19T06:39:41.327Z,82.95
2023-03-19T06:42:08.918Z,74.90
2023-03-19T06:44:36.230Z,83.03
2023-03-19T06:47:03.638Z,80.55
2023-03-19T06:49:31.213Z,75.45
2023-03-19T06:51:58.660Z,83.68
2023-03-19T06:54:26.325Z,90.03
2023-03-19T06:56:53.724Z,73.18
2023-03-19T06:59:21.249Z,70.32
2023-03-19T07:01:48.918Z,114.05
2023-03-19T07:04:16.453Z,80.90
2023-03-19T07:06:43.802Z,80.72
2023-03-19T07:09:11.650Z,78.07
2023-03-19T07:11:39.892Z,66.50
2023-03-19T07:14:07.351Z,62.85
2023-03-19T07:16:37.443Z,76.68
2023-03-19T07:19:04.782Z,69.13
2023-03-19T07:21:40.928Z,69.13
2023-03-19T07:24:08.815Z,58.22
2023-03-19T07:26:36.141Z,69.25
2023-03-19T07:29:03.805Z,67.82
2023-03-19T07:31:31.528Z,70.78
2023-03-19T07:33:58.996Z,64.85
2023-03-19T07:36:26.647Z,52.50
2023-03-19T07:38:54.148Z,61.28
2023-03-19T07:41:21.961Z,59.00
2023-03-19T07:43:49.537Z,69.95
2023-03-19T07:46:18.179Z,70.35
2023-03-19T07:48:45.955Z,77.15
2023-03-19T07:51:13.314Z,83.55
2023-03-19T07:53:40.765Z,83.03
2023-03-19T07:56:10.127Z,85.05
2023-03-19T07:58:37.801Z,88.25
2023-03-19T08:01:05.266Z,78.75
2023-03-19T08:03:33.182Z,85.85
2023-03-19T08:06:00.548Z,80.22
2023-03-19T08:08:28.046Z,66.78
2023-03-19T08:10:56.194Z,70.20
2023-03-19T08:13:23.672Z,64.80
2023-03-19T08:15:52.238Z,66.90
2023-03-19T08:18:20.022Z,69.75
2023-03-19T08:20:48.508Z,76.07
2023-03-19T08:23:16.461Z,69.55
2023-03-19T08:25:45.393Z,73.78
2023-03-19T08:28:13.110Z,71.10
2023-03-19T08:30:41.019Z,69.47
2023-03-19T08:33:08.874Z,63.25
2023-03-19T08:35:37.760Z,67.40
2023-03-19T08:38:07.908Z,65.70
2023-03-19T08:40:35.939Z,70.03
2023-03-19T08:43:04.094Z,72.38
2023-03-19T08:45:31.462Z,71.00
2023-03-19T08:47:58.947Z,74.47
2023-03-19T08:50:26.379Z,73.65
2023-03-19T08:52:55.719Z,74.13
2023-03-19T08:55:23.067Z,71.65
2023-03-19T08:57:50.712Z,73.15
2023-03-19T09:00:29.172Z,77.28
2023-03-19T09:02:56.585Z,77.43
2023-03-19T09:05:29.296Z,74.10
2023-03-19T09:07:57.222Z,74.95
2023-03-19T09:10:24.516Z,72.03
2023-03-19T09:12:58.478Z,69.07
2023-03-19T09:15:26.047Z,68.13
2023-03-19T09:17:53.374Z,67.35
2023-03-19T09:20:21.094Z,63.88
2023-03-19T09:22:48.493Z,64.10
2023-03-19T09:25:16.072Z,60.08
2023-03-19T09:27:43.394Z,52.92
2023-03-19T09:30:11.586Z,58.30
2023-03-19T09:32:39.109Z,55.17
2023-03-19T09:35:07.429Z,59.22
2023-03-19T09:37:34.767Z,51.83
2023-03-19T09:40:02.268Z,52.40
2023-03-19T09:42:35.383Z,61.88
2023-03-19T09:45:03.238Z,60.20
2023-03-19T09:47:33.352Z,62.30
2023-03-19T09:50:06.051Z,68.95
2023-03-19T09:52:36.478Z,64.78
2023-03-19T09:55:13.340Z,64.05
2023-03-19T09:57:41.133Z,67.78
2023-03-19T10:00:22.790Z,67.80
2023-03-19T10:03:04.077Z,74.25
2023-03-19T10:05:52.022Z,66.28
2023-03-19T10:08:32.788Z,63.05
2023-03-19T10:11:37.238Z,64.85
2023-03-19T10:14:34.353Z,63.47
2023-03-19T10:17:05.939Z,60.58
2023-03-19T10:19:51.647Z,60.15
2023-03-19T10:22:51.729Z,58.47
2023-03-19T10:25:35.864Z,60.63
2023-03-19T10:28:19.059Z,57.60
2023-03-19T10:31:27.757Z,56.17
2023-03-19T10:34:33.691Z,53.30
2023-03-19T10:37:22.225Z,56.92
2023-03-19T10:40:21.198Z,55.88
2023-03-19T10:43:15.861Z,55.83
2023-03-19T10:46:01.658Z,61.13
2023-03-19T10:48:31.869Z,64.20
2023-03-19T10:51:06.586Z,60.33
2023-03-19T10:53:38.919Z,64.68
2023-03-19T10:56:35.423Z,57.90
2023-03-19T10:59:10.639Z,60.08
2023-03-19T11:01:53.383Z,60.65
2023-03-19T11:04:26.674Z,64.43
2023-03-19T11:07:05.584Z,63.22
2023-03-19T11:09:38.659Z,63.90
2023-03-19T11:12:35.632Z,62.83
2023-03-19T11:15:25.558Z,60.55
2023-03-19T11:18:21.137Z,59.58
2023-03-19T11:21:06.185Z,60.25
2023-03-19T11:23:41.658Z,65.40
2023-03-19T11:26:13.777Z,58.92
2023-03-19T11:28:44.827Z,58.53
2023-03-19T11:31:14.926Z,58.17
2023-03-19T11:34:22.502Z,57.72
2023-03-19T11:37:11.433Z,58.85
2023-03-19T11:40:11.462Z,53.67
2023-03-19T11:43:00.616Z,49.95
2023-03-19T11:46:09.683Z,53.80
2023-03-19T11:49:06.717Z,56.88
2023-03-19T11:52:48.757Z,56.95
2023-03-19T11:55:39.388Z,51.90
2023-03-19T11:59:01.169Z,48.63
2023-03-19T12:01:38.233Z,46.05
2023-03-19T12:04:31.059Z,45.85
2023-03-19T12:07:04.362Z,46.35
2023-03-19T12:09:44.343Z,46.97
2023-03-19T12:12:23.620Z,53.33
2023-03-19T12:15:17.006Z,49.60
2023-03-19T12:18:15.326Z,40.90
2023-03-19T12:21:32.516Z,44.20
2023-03-19T12:24:30.362Z,35.03
2023-03-19T12:27:21.874Z,32.70
2023-03-19T12:30:52.432Z,38.75
2023-03-19T12:33:48.807Z,34.53
2023-03-19T12:36:36.313Z,35.92
2023-03-19T12:39:15.698Z,37.38
2023-03-19T12:41:48.587Z,32.55
2023-03-19T12:47:27.455Z,32.28
2023-03-19T12:50:01.359Z,29.50
2023-03-19T12:52:43.409Z,33.03
2023-03-19T12:55:16.525Z,28.53
2023-03-19T12:57:48.701Z,28.17
2023-03-19T13:00:50.009Z,23.58
2023-03-19T13:03:23.842Z,25.45
2023-03-19T13:06:15.057Z,25.02
2023-03-19T13:09:03.830Z,28.55
2023-03-19T13:11:42.213Z,24.38
2023-03-19T13:14:38.953Z,23.30
2023-03-19T13:17:41.925Z,24.90
2023-03-19T13:20:45.876Z,26.92
2023-03-19T13:23:16.611Z,26.02
2023-03-19T13:25:47.979Z,29.20
2023-03-19T13:28:30.283Z,28.60
2023-03-19T13:31:06.028Z,28.27
2023-03-19T13:33:35.562Z,30.15
2023-03-19T13:36:09.111Z,31.23
2023-03-19T13:38:44.921Z,30.92
2023-03-19T13:41:39.801Z,36.08
2023-03-19T13:44:39.546Z,35.00
2023-03-19T13:47:36.216Z,35.63
2023-03-19T13:50:08.837Z,35.30
2023-03-19T13:52:45.309Z,33.90
2023-03-19T13:55:32.999Z,28.85
2023-03-19T13:58:38.754Z,26.98
2023-03-19T14:01:09.442Z,27.27
2023-03-19T14:03:41.290Z,26.90
2023-03-19T14:06:51.225Z,22.45
2023-03-19T14:09:42.249Z,24.85
2023-03-19T14:12:23.140Z,24.63
2023-03-19T14:15:07.725Z,26.60
2023-03-19T14:17:56.621Z,19.23
2023-03-19T14:20:39.744Z,18.30
2023-03-19T14:23:13.021Z,14.63
2023-03-19T14:26:13.502Z,13.98
2023-03-19T14:28:46.783Z,14.40
2023-03-19T14:31:32.713Z,12.95
2023-03-19T14:34:34.453Z,14.38
2023-03-19T14:37:17.727Z,15.63
2023-03-19T14:39:46.689Z,20.52
2023-03-19T14:42:21.437Z,20.35
2023-03-19T14:45:15.019Z,21.85
2023-03-19T14:48:00.614Z,23.55
2023-03-19T14:50:48.928Z,27.15
2023-03-19T14:53:39.738Z,21.58
2023-03-19T14:56:34.567Z,23.27
2023-03-19T14:59:04.317Z,26.90
2023-03-19T15:01:33.955Z,23.58
2023-03-19T15:04:04.507Z,26.15
2023-03-19T15:06:42.843Z,26.17
2023-03-19T15:09:31.312Z,28.80
2023-03-19T15:12:15.854Z,26.45
2023-03-19T15:15:09.707Z,24.30
2023-03-19T15:17:38.849Z,21.77
2023-03-19T15:20:24.522Z,23.10
2023-03-19T15:22:57.050Z,25.25
2023-03-19T15:25:24.507Z,21.23
2023-03-19T15:28:10.168Z,22.63
2023-03-19T15:30:52.370Z,20.77
2023-03-19T15:33:39.439Z,20.52
2023-03-19T15:36:16.423Z,21.65
2023-03-19T15:39:01.300Z,18.45
2023-03-19T15:41:32.259Z,16.75
2023-03-19T15:44:00.581Z,17.27
2023-03-19T15:46:33.052Z,16.13
2023-03-19T15:49:12.359Z,22.95
2023-03-19T15:51:41.308Z,15.50
2023-03-19T15:54:12.227Z,10.63
2023-03-19T15:56:40.108Z,12.50
2023-03-19T15:59:07.694Z,13.10
2023-03-19T16:01:36.222Z,10.35
2023-03-19T16:04:07.191Z,10.10
2023-03-19T16:06:41.954Z,14.90
2023-03-19T16:09:27.187Z,13.73
2023-03-19T16:11:56.265Z,14.45
2023-03-19T16:14:41.672Z,14.90
2023-03-19T16:17:23.243Z,18.92
2023-03-19T16:19:56.613Z,22.02
2023-03-19T16:22:29.610Z,18.23
2023-03-19T16:24:57.347Z,19.27
2023-03-19T16:27:40.908Z,20.13
2023-03-19T16:30:21.640Z,20.45
2023-03-19T16:33:03.097Z,21.45
2023-03-19T16:35:32.011Z,19.70
2023-03-19T16:38:19.178Z,18.95
2023-03-19T16:40:50.824Z,17.83
2023-03-19T16:43:23.806Z,18.63
2023-03-19T16:45:55.123Z,18.67
2023-03-19T16:48:23.671Z,22.77
2023-03-19T16:50:51.261Z,21.95
2023-03-19T16:53:26.621Z,20.80
2023-03-19T16:55:55.821Z,23.60
2023-03-19T16:58:37.305Z,18.88
2023-03-19T17:01:24.469Z,19.17
2023-03-19T17:03:52.284Z,18.50
2023-03-19T17:06:23.534Z,19.52
2023-03-19T17:09:02.786Z,17.38
2023-03-19T17:11:36.839Z,16.73
2023-03-19T17:14:11.690Z,16.20
2023-03-19T17:16:49.019Z,17.88
2023-03-19T17:19:36.892Z,18.85
2023-03-19T17:22:04.887Z,17.95
2023-03-19T17:24:34.302Z,20.65
2023-03-19T17:27:12.759Z,22.08
2023-03-19T17:29:40.246Z,22.48
2023-03-19T17:32:12.410Z,23.20
2023-03-19T17:34:40.104Z,23.65
2023-03-19T17:37:10.997Z,24.40
2023-03-19T17:39:41.709Z,22.75
2023-03-19T17:42:27.592Z,21.08
2023-03-19T17:45:01.441Z,31.13
2023-03-19T17:47:33.900Z,28.80
2023-03-19T17:50:01.354Z,26.90
2023-03-19T17:52:30.478Z,31.20
2023-03-19T17:54:58.060Z,32.90
2023-03-19T17:57:27.043Z,34.97
2023-03-19T17:59:54.812Z,34.60
2023-03-19T18:02:32.695Z,45.17
2023-03-19T18:05:00.632Z,46.20
2023-03-19T18:07:28.876Z,46.45
2023-03-19T18:09:59.265Z,48.85
2023-03-19T18:12:27.363Z,48.20
2023-03-19T18:14:56.278Z,49.25
2023-03-19T18:17:23.878Z,51.58
2023-03-19T18:19:55.049Z,45.95
2023-03-19T18:22:22.643Z,52.58
2023-03-19T18:24:49.990Z,63.85
2023-03-19T18:27:17.305Z,64.10
2023-03-19T18:29:45.007Z,44.47
2023-03-19T18:32:16.752Z,33.67
2023-03-19T18:34:44.157Z,28.70
2023-03-19T18:37:17.404Z,31.83
2023-03-19T18:39:46.576Z,25.83
2023-03-19T18:42:14.255Z,24.10
2023-03-19T18:44:41.878Z,28.02
2023-03-19T18:47:18.392Z,26.45
2023-03-19T18:49:45.970Z,30.13
2023-03-19T18:52:17.885Z,38.33
2023-03-19T18:54:46.575Z,35.35
2023-03-19T18:57:14.600Z,39.35
2023-03-19T18:59:42.144Z,32.35
2023-03-19T19:02:37.375Z,36.42
2023-03-19T19:05:05.001Z,32.05
2023-03-19T19:07:32.402Z,35.50
2023-03-19T19:09:59.676Z,35.45
2023-03-19T19:12:27.289Z,32.42
2023-03-19T19:14:54.849Z,33.00
2023-03-19T19:17:29.178Z,24.70
2023-03-19T19:19:56.598Z,26.73
2023-03-19T19:22:24.002Z,25.52
2023-03-19T19:24:51.294Z,24.60
2023-03-19T19:27:23.597Z,23.35
2023-03-19T19:29:51.296Z,24.80
2023-03-19T19:32:27.652Z,24.65
2023-03-19T19:34:55.235Z,22.35
2023-03-19T19:37:23.681Z,23.77
2023-03-19T19:39:51.431Z,20.33
2023-03-19T19:42:21.262Z,18.50
2023-03-19T19:44:56.262Z,18.88
2023-03-19T19:47:23.720Z,18.27
2023-03-19T19:49:51.213Z,16.92
2023-03-19T19:52:19.706Z,21.23
2023-03-19T19:54:47.692Z,16.10
2023-03-19T19:57:21.391Z,19.67
2023-03-19T19:59:50.046Z,21.00
2023-03-19T20:02:26.228Z,18.83
2023-03-19T20:04:54.645Z,15.63
2023-03-19T20:07:22.135Z,13.73
2023-03-19T20:09:49.540Z,18.15
2023-03-19T20:12:22.298Z,16.23
2023-03-19T20:14:50.298Z,12.32
2023-03-19T20:17:19.269Z,13.52
2023-03-19T20:19:46.689Z,14.90
2023-03-19T20:22:14.084Z,13.20
2023-03-19T20:24:41.723Z,10.35
2023-03-19T20:27:24.070Z,12.18
2023-03-19T20:29:51.580Z,9.97
2023-03-19T20:32:42.059Z,13.50
2023-03-19T20:35:21.409Z,12.02
2023-03-19T20:37:49.384Z,11.15
2023-03-19T20:40:17.198Z,12.68
2023-03-19T20:42:47.204Z,16.90
2023-03-19T20:45:23.015Z,23.52
2023-03-19T20:47:54.722Z,21.23
2023-03-19T20:50:28.228Z,26.45
2023-03-19T20:53:03.186Z,26.80
2023-03-19T20:55:33.192Z,32.42
2023-03-19T20:58:03.867Z,28.25
2023-03-19T21:00:33.502Z,25.73
2023-03-19T21:03:02.408Z,25.27
2023-03-19T21:05:37.461Z,23.95
2023-03-19T21:08:06.708Z,24.40
2023-03-19T21:10:37.034Z,26.50
2023-03-19T21:13:05.411Z,21.95
2023-03-19T21:15:33.255Z,25.13
2023-03-19T21:18:00.869Z,19.58
2023-03-19T21:20:30.279Z,26.80
2023-03-19T21:23:03.819Z,31.48
2023-03-19T21:25:33.107Z,28.23
2023-03-19T21:28:04.030Z,22.73
2023-03-19T21:30:31.678Z,26.73
2023-03-19T21:32:59.060Z,21.33
2023-03-19T21:35:27.293Z,30.92
2023-03-19T21:37:54.848Z,23.38
2023-03-19T21:40:28.366Z,29.90
2023-03-19T21:43:01.396Z,22.77
2023-03-19T21:45:33.777Z,34.30
2023-03-19T21:48:16.370Z,26.73
2023-03-19T21:50:43.740Z,21.13
2023-03-19T21:53:11.426Z,36.00
2023-03-19T21:55:38.898Z,33.08
2023-03-19T21:58:14.413Z,29.88
2023-03-19T22:00:41.792Z,30.42
2023-03-19T22:03:19.089Z,30.85
2023-03-19T22:05:49.825Z,27.45
2023-03-19T22:08:18.241Z,30.95
2023-03-19T22:10:46.405Z,34.30
2023-03-19T22:13:24.993Z,29.23
2023-03-19T22:15:53.571Z,31.52
2023-03-19T22:18:21.041Z,29.48
2023-03-19T22:20:50.273Z,33.13
2023-03-19T22:23:18.582Z,31.95
2023-03-19T22:25:50.919Z,28.83
2023-03-19T22:28:21.225Z,28.10
2023-03-19T22:30:48.929Z,26.00
2023-03-19T22:33:22.034Z,27.98
2023-03-19T22:35:50.416Z,23.45
2023-03-19T22:38:19.268Z,18.33
2023-03-19T22:40:49.042Z,19.85
2023-03-19T22:43:24.463Z,18.38
2023-03-19T22:45:56.230Z,19.67
2023-03-19T22:48:23.732Z,19.65
2023-03-19T22:50:52.269Z,18.77
2023-03-19T22:53:31.518Z,17.20
2023-03-19T22:55:59.801Z,16.10
2023-03-19T22:58:27.756Z,15.32
2023-03-19T23:00:58.658Z,15.48
2023-03-19T23:03:30.890Z,16.40
2023-03-19T23:06:27.004Z,17.30
2023-03-19T23:08:56.402Z,19.65
2023-03-19T23:11:24.424Z,17.85
2023-03-19T23:13:52.294Z,15.30
2023-03-19T23:16:24.661Z,16.73
2023-03-19T23:18:52.848Z,17.38
2023-03-19T23:21:20.893Z,17.60
2023-03-19T23:23:48.276Z,16.73
2023-03-19T23:26:26.656Z,18.23
2023-03-19T23:28:54.847Z,17.08
2023-03-19T23:31:22.411Z,15.85
2023-03-19T23:33:50.112Z,21.88
2023-03-19T23:36:18.179Z,21.95
2023-03-19T23:38:46.780Z,20.95
2023-03-19T23:41:25.435Z,26.00
2023-03-19T23:43:53.892Z,20.05
2023-03-19T23:46:22.090Z,23.17
2023-03-19T23:48:53.310Z,24.05
2023-03-19T23:51:20.712Z,23.98
2023-03-19T23:53:48.194Z,26.73
2023-03-19T23:56:24.561Z,25.60
2023-03-19T23:58:53.791Z,24.23
